Time;durP1;ratioP1;P1;durP2;ratioP2;P2;SDS_P1;SDS_P2;PMS_P1;PMS_P2;Temp;Humidity;BMP_temperature;BMP_pressure;BME280_temperature;BME280_humidity;BME280_pressure;Samples;Min_cycle;Max_cycle;Signal;HPM_P1;HPM_P2
2023/09/11 00:00:45;;;;;;;9.00;3.60;;;19.00;99.90;;;;;;4822600;29;20057;-68
2023/09/11 00:03:19;;;;;;;6.88;3.13;;;19.00;99.90;;;;;;4823097;29;20543;-68
2023/09/11 00:05:49;;;;;;;7.10;3.30;;;19.00;99.90;;;;;;4822962;29;20154;-68
2023/09/11 00:08:24;;;;;;;6.82;2.90;;;18.90;99.90;;;;;;4822697;29;20070;-68
2023/09/11 00:10:49;;;;;;;8.02;3.67;;;19.00;99.90;;;;;;4807455;29;20046;-68
2023/09/11 00:13:15;;;;;;;10.30;2.97;;;19.00;99.90;;;;;;4822835;29;20042;-69
2023/09/11 00:15:41;;;;;;;14.27;3.55;;;19.00;99.90;;;;;;4822621;29;20038;-69
2023/09/11 00:18:07;;;;;;;8.43;2.85;;;19.00;99.90;;;;;;4836188;29;20041;-70
2023/09/11 00:20:41;;;;;;;6.18;2.40;;;19.00;99.90;;;;;;4874536;29;20074;-69
2023/09/11 00:23:13;;;;;;;5.00;3.17;;;18.80;99.90;;;;;;4852078;29;20404;-69
2023/09/11 00:25:45;;;;;;;5.63;2.80;;;18.80;99.90;;;;;;4861182;29;20078;-69
2023/09/11 00:28:26;;;;;;;7.90;3.13;;;19.00;99.90;;;;;;4861383;29;20053;-69
2023/09/11 00:30:59;;;;;;;5.85;2.95;;;19.20;99.90;;;;;;4861068;29;20498;-68
2023/09/11 00:33:52;;;;;;;6.35;2.63;;;19.20;99.90;;;;;;4860141;29;20061;-69
2023/09/11 00:36:17;;;;;;;5.10;3.55;;;18.80;99.90;;;;;;4857557;29;20570;-69
2023/09/11 00:38:47;;;;;;;10.32;3.35;;;18.70;99.90;;;;;;4861262;29;20142;-69
2023/09/11 00:41:16;;;;;;;7.85;3.38;;;18.50;99.90;;;;;;4859352;29;20049;-69
2023/09/11 00:43:42;;;;;;;6.40;2.50;;;18.40;99.90;;;;;;4860186;29;20037;-68
2023/09/11 00:46:43;;;;;;;6.35;2.88;;;18.30;99.90;;;;;;4861643;29;20117;-69
2023/09/11 00:49:11;;;;;;;8.50;3.30;;;18.20;99.90;;;;;;4825072;29;20042;-69
2023/09/11 00:51:40;;;;;;;10.48;3.13;;;18.10;99.90;;;;;;4824662;29;20041;-69
2023/09/11 00:54:13;;;;;;;11.20;3.53;;;18.10;99.90;;;;;;4824875;29;20042;-69
2023/09/11 00:56:39;;;;;;;6.57;3.30;;;18.10;99.90;;;;;;4824948;29;20034;-69
2023/09/11 00:59:31;;;;;;;6.50;3.03;;;18.10;99.90;;;;;;4824665;29;20436;-70
2023/09/11 01:01:58;;;;;;;14.60;2.95;;;18.40;99.90;;;;;;4833842;29;20050;-70
2023/09/11 01:04:24;;;;;;;6.97;3.05;;;18.50;99.90;;;;;;4818451;29;20034;-70
2023/09/11 01:06:53;;;;;;;6.25;3.40;;;18.60;99.90;;;;;;4814932;29;20102;-70
2023/09/11 01:09:24;;;;;;;4.57;2.88;;;18.50;99.90;;;;;;4802040;29;20053;-69
2023/09/11 01:11:59;;;;;;;14.90;3.25;;;18.60;99.90;;;;;;4805664;29;20167;-71
2023/09/11 01:14:28;;;;;;;5.55;2.85;;;18.80;99.90;;;;;;4820784;29;20030;-69
2023/09/11 01:17:43;;;;;;;9.23;3.38;;;18.90;99.90;;;;;;4821202;29;20050;-70
2023/09/11 01:21:13;;;;;;;14.25;3.42;;;19.00;99.90;;;;;;4821172;29;20037;-70
2023/09/11 01:24:29;;;;;;;5.40;2.72;;;19.00;99.90;;;;;;4820738;29;20035;-70
2023/09/11 01:27:46;;;;;;;5.00;3.00;;;18.80;99.90;;;;;;4878369;29;20394;-70
2023/09/11 01:30:20;;;;;;;7.75;2.97;;;18.70;99.90;;;;;;4878098;29;20032;-70
2023/09/11 01:32:59;;;;;;;7.65;3.10;;;18.70;99.90;;;;;;4862139;29;20115;-70
2023/09/11 01:35:28;;;;;;;6.35;3.20;;;18.60;99.90;;;;;;4848021;29;20037;-70
2023/09/11 01:37:55;;;;;;;8.60;3.28;;;18.60;99.90;;;;;;4878365;29;20386;-70
2023/09/11 01:43:37;;;;;;;8.57;2.90;;;18.20;99.90;;;;;;4858699;29;20139;-70
2023/09/11 01:46:44;;;;;;;9.10;2.85;;;18.10;99.90;;;;;;4862190;29;20485;-69
2023/09/11 01:49:10;;;;;;;6.05;2.67;;;17.90;99.90;;;;;;4878246;29;20047;-69
2023/09/11 01:51:46;;;;;;;10.65;3.67;;;17.90;99.90;;;;;;4846251;29;20306;-69
2023/09/11 01:54:13;;;;;;;8.50;3.35;;;18.10;99.90;;;;;;4867291;29;20366;-69
2023/09/11 01:56:39;;;;;;;6.88;3.03;;;18.20;99.90;;;;;;4863644;29;20033;-69
2023/09/11 01:59:05;;;;;;;10.15;3.58;;;18.30;99.90;;;;;;4861589;29;20040;-69
2023/09/11 02:01:34;;;;;;;11.68;3.33;;;18.30;99.90;;;;;;4885574;29;20029;-69
2023/09/11 02:03:59;;;;;;;7.55;3.92;;;18.20;99.90;;;;;;4861501;29;20418;-69
2023/09/11 02:06:34;;;;;;;8.35;3.35;;;18.10;99.90;;;;;;4861431;29;20070;-69
2023/09/11 02:09:06;;;;;;;8.63;3.03;;;17.80;99.90;;;;;;4845767;29;20411;-69
2023/09/11 02:11:44;;;;;;;6.88;3.72;;;17.90;99.90;;;;;;4877505;29;20040;-69
2023/09/11 02:14:42;;;;;;;8.55;3.17;;;18.00;99.90;;;;;;4878220;29;20029;-69
2023/09/11 02:17:20;;;;;;;6.90;3.30;;;18.00;99.90;;;;;;4850942;29;20063;-69
2023/09/11 02:19:45;;;;;;;6.45;3.00;;;17.90;99.90;;;;;;4880370;29;20052;-69
2023/09/11 02:22:14;;;;;;;11.43;3.33;;;17.80;99.90;;;;;;4880582;29;20029;-69
2023/09/11 02:25:04;;;;;;;4.55;2.47;;;17.70;99.90;;;;;;4881129;29;20088;-69
2023/09/11 02:27:36;;;;;;;6.80;3.22;;;17.90;99.90;;;;;;4851721;29;20092;-69
2023/09/11 02:30:11;;;;;;;8.43;3.00;;;18.00;99.90;;;;;;4851406;29;20040;-69
2023/09/11 02:32:43;;;;;;;8.02;3.30;;;18.00;99.90;;;;;;4866402;29;20048;-69
2023/09/11 02:36:10;;;;;;;9.70;3.70;;;17.90;99.90;;;;;;4877957;29;20386;-69
2023/09/11 02:38:39;;;;;;;5.65;2.70;;;17.80;99.90;;;;;;4842632;29;20041;-69
2023/09/11 02:41:14;;;;;;;5.85;2.70;;;17.70;99.90;;;;;;4876604;29;20037;-69
2023/09/11 02:43:39;;;;;;;6.90;3.20;;;17.40;99.90;;;;;;4878011;29;20482;-69
2023/09/11 02:46:05;;;;;;;7.72;3.25;;;17.50;99.90;;;;;;4867463;29;20036;-69
2023/09/11 02:48:31;;;;;;;8.15;3.67;;;17.50;99.90;;;;;;4861059;29;20025;-69
2023/09/11 02:50:57;;;;;;;7.43;2.97;;;17.70;99.90;;;;;;4877486;29;20025;-69
2023/09/11 02:53:26;;;;;;;5.60;3.30;;;17.80;99.90;;;;;;4877699;29;20514;-69
2023/09/11 02:55:57;;;;;;;7.97;3.65;;;17.90;99.90;;;;;;4877653;29;20073;-69
2023/09/11 02:58:23;;;;;;;6.47;2.92;;;18.00;99.90;;;;;;4877601;29;20111;-69
2023/09/11 03:01:05;;;;;;;11.23;3.90;;;18.00;99.90;;;;;;4863062;29;20041;-69
2023/09/11 03:03:31;;;;;;;6.20;3.60;;;18.00;99.90;;;;;;4834197;29;20120;-69
2023/09/11 03:06:17;;;;;;;5.43;3.10;;;18.00;99.90;;;;;;4881481;29;20033;-69
2023/09/11 03:08:52;;;;;;;7.07;3.75;;;18.10;99.90;;;;;;4866846;29;20048;-69
2023/09/11 03:11:23;;;;;;;6.97;3.25;;;18.20;99.90;;;;;;4880874;29;20520;-69
2023/09/11 03:13:52;;;;;;;7.60;3.67;;;18.00;99.90;;;;;;4848828;29;20161;-70
2023/09/11 03:16:18;;;;;;;8.45;2.70;;;17.80;99.90;;;;;;4880926;29;20033;-70
2023/09/11 03:18:56;;;;;;;9.65;2.90;;;17.70;99.90;;;;;;4880873;29;20359;-70
2023/09/11 03:21:45;;;;;;;12.93;3.05;;;17.90;99.90;;;;;;4863657;29;20497;-70
2023/09/11 03:24:10;;;;;;;9.63;3.08;;;18.00;99.90;;;;;;4869071;29;20048;-70
2023/09/11 03:26:42;;;;;;;9.63;3.65;;;17.70;99.90;;;;;;4880686;29;20036;-69
2023/09/11 03:29:08;;;;;;;9.18;3.15;;;17.50;99.90;;;;;;4880737;29;20498;-69
2023/09/11 03:31:33;;;;;;;8.57;3.88;;;17.50;99.90;;;;;;4880349;29;20127;-69
2023/09/11 03:33:59;;;;;;;7.28;3.15;;;17.30;99.90;;;;;;4880591;29;20025;-69
2023/09/11 03:36:53;;;;;;;7.25;2.95;;;17.20;99.90;;;;;;4880432;29;20480;-70
2023/09/11 03:40:14;;;;;;;10.25;3.80;;;17.10;99.90;;;;;;4880421;29;20081;-69
2023/09/11 03:42:40;;;;;;;6.75;3.10;;;16.90;99.90;;;;;;4840894;29;20055;-69
2023/09/11 03:45:07;;;;;;;7.20;3.95;;;17.00;99.90;;;;;;4888289;29;20072;-69
2023/09/11 03:47:33;;;;;;;12.30;3.42;;;16.90;99.90;;;;;;4863536;29;20434;-70
2023/09/11 03:50:10;;;;;;;13.50;3.78;;;16.90;99.90;;;;;;4863287;29;20092;-69
2023/09/11 03:52:42;;;;;;;7.07;3.13;;;17.00;99.90;;;;;;4864800;29;20060;-69
2023/09/11 03:55:08;;;;;;;7.78;3.72;;;17.20;99.90;;;;;;4880163;29;20033;-70
2023/09/11 03:57:33;;;;;;;19.90;3.65;;;17.30;99.90;;;;;;4880046;29;20340;-68
2023/09/11 04:00:07;;;;;;;8.02;3.97;;;17.20;99.90;;;;;;4860019;29;20040;-68
2023/09/11 04:02:39;;;;;;;7.25;3.15;;;17.10;99.90;;;;;;4877102;29;20381;-69
2023/09/11 04:05:11;;;;;;;10.13;3.13;;;17.00;99.90;;;;;;4880025;29;20090;-69
2023/09/11 04:07:37;;;;;;;9.50;4.20;;;16.90;99.90;;;;;;4863164;29;20029;-69
2023/09/11 04:10:12;;;;;;;7.88;3.28;;;16.90;99.90;;;;;;4879479;29;20139;-70
2023/09/11 04:12:50;;;;;;;10.35;3.78;;;16.90;99.90;;;;;;4879722;29;20076;-70
2023/09/11 04:15:18;;;;;;;7.97;3.10;;;17.00;99.90;;;;;;4879740;29;20033;-70
2023/09/11 04:17:44;;;;;;;6.38;3.08;;;16.90;99.90;;;;;;4879909;29;20101;-69
2023/09/11 04:20:10;;;;;;;9.23;4.10;;;16.80;99.90;;;;;;4862668;29;20028;-69
2023/09/11 04:22:38;;;;;;;5.20;2.80;;;16.60;99.90;;;;;;4879740;29;20120;-69
2023/09/11 04:25:13;;;;;;;7.90;2.97;;;16.70;99.90;;;;;;4879565;29;20029;-69
2023/09/11 04:27:50;;;;;;;10.18;4.38;;;16.70;99.90;;;;;;4862889;29;20486;-69
2023/09/11 04:30:17;;;;;;;6.55;4.00;;;16.80;99.90;;;;;;4879092;29;20508;-69
2023/09/11 04:32:55;;;;;;;8.65;3.72;;;16.90;99.90;;;;;;4879445;29;20039;-69
2023/09/11 04:35:27;;;;;;;12.07;3.50;;;16.80;99.90;;;;;;4879186;29;20092;-69
2023/09/11 04:37:58;;;;;;;10.82;3.50;;;16.40;99.90;;;;;;4879401;29;20498;-70
2023/09/11 04:40:27;;;;;;;12.30;3.88;;;16.40;99.90;;;;;;4879210;29;20025;-69
2023/09/11 04:43:02;;;;;;;5.20;2.92;;;16.30;99.90;;;;;;4865337;29;20017;-69
2023/09/11 04:45:46;;;;;;;8.02;3.60;;;16.50;99.90;;;;;;4882991;29;20041;-71
2023/09/11 04:48:11;;;;;;;11.45;3.78;;;16.50;99.90;;;;;;4879100;29;20032;-69
2023/09/11 04:51:35;;;;;;;14.60;4.28;;;16.40;99.90;;;;;;4861906;29;20033;-70
2023/09/11 04:54:58;;;;;;;11.40;5.10;;;16.40;99.90;;;;;;4839837;29;20052;-70
2023/09/11 04:57:33;;;;;;;14.90;5.00;;;16.20;99.90;;;;;;4731777;30;20088;-69
2023/09/11 05:00:29;;;;;;;9.38;3.67;;;16.50;99.90;;;;;;4731601;30;20032;-69
2023/09/11 05:03:22;;;;;;;17.48;5.65;;;16.40;99.90;;;;;;4705388;30;20747;-69
2023/09/11 05:05:54;;;;;;;8.00;4.70;;;16.50;99.90;;;;;;4731722;30;20443;-69
2023/09/11 05:08:29;;;;;;;7.60;3.80;;;16.50;99.90;;;;;;4732235;30;20117;-69
2023/09/11 05:11:22;;;;;;;19.40;4.65;;;16.60;99.90;;;;;;4731380;30;20044;-69
2023/09/11 05:13:56;;;;;;;31.55;13.65;;;16.50;99.90;;;;;;4707591;30;20122;-69
2023/09/11 05:17:02;;;;;;;18.65;6.18;;;16.60;99.90;;;;;;4731508;30;20124;-69
2023/09/11 05:20:04;;;;;;;9.80;4.88;;;16.80;99.90;;;;;;4715296;30;20473;-69
2023/09/11 05:23:05;;;;;;;10.57;5.53;;;16.80;99.90;;;;;;4662372;30;20103;-69
2023/09/11 05:25:36;;;;;;;52.25;23.45;;;16.70;99.90;;;;;;4676285;30;20532;-69
2023/09/11 05:28:20;;;;;;;12.18;6.57;;;16.90;99.90;;;;;;4679506;30;20065;-70
2023/09/11 05:30:50;;;;;;;8.43;4.47;;;17.00;99.90;;;;;;4678780;30;20046;-70
2023/09/11 05:33:34;;;;;;;9.10;4.03;;;17.00;99.90;;;;;;4700874;29;20802;-69
2023/09/11 05:36:33;;;;;;;12.93;4.50;;;17.10;99.90;;;;;;4802533;29;20089;-70
2023/09/11 05:39:08;;;;;;;9.50;4.22;;;17.20;99.90;;;;;;4802572;29;20434;-70
2023/09/11 05:42:00;;;;;;;10.23;4.13;;;17.00;99.90;;;;;;4794399;29;20468;-70
2023/09/11 05:44:53;;;;;;;12.40;4.90;;;17.00;99.90;;;;;;4781866;29;20504;-70
2023/09/11 05:47:19;;;;;;;8.18;3.90;;;17.10;99.90;;;;;;4802276;29;20074;-70
2023/09/11 05:49:50;;;;;;;9.45;3.42;;;17.30;99.90;;;;;;4803142;29;20066;-70
2023/09/11 05:52:19;;;;;;;;;;;17.30;99.90;;;;;;4789405;29;20062;-70
2023/09/11 05:54:44;;;;;;;5.63;3.17;;;17.30;99.90;;;;;;4804220;29;19962;-69
2023/09/11 05:57:40;;;;;;;9.00;4.60;;;17.20;99.90;;;;;;4804345;29;20047;-69
2023/09/11 06:00:43;;;;;;;8.52;4.53;;;17.20;99.90;;;;;;4860313;29;20450;-69
2023/09/11 06:03:09;;;;;;;11.35;4.65;;;17.20;99.90;;;;;;4861505;29;20033;-69
2023/09/11 06:05:41;;;;;;;11.32;3.67;;;17.40;99.90;;;;;;4860928;29;20040;-69
2023/09/11 06:08:39;;;;;;;25.73;6.80;;;17.50;99.90;;;;;;4843221;29;20044;-69
2023/09/11 06:11:05;;;;;;;12.07;6.10;;;17.60;99.90;;;;;;4819962;29;20149;-69
2023/09/11 06:13:41;;;;;;;19.23;6.00;;;17.50;99.90;;;;;;4820613;29;20041;-69
2023/09/11 06:16:07;;;;;;;11.15;4.65;;;17.50;99.90;;;;;;4855043;29;20102;-69
2023/09/11 06:18:32;;;;;;;18.70;6.13;;;17.60;99.90;;;;;;4859560;29;20431;-69
2023/09/11 06:20:58;;;;;;;9.52;5.07;;;17.70;99.90;;;;;;4859177;29;20041;-69
2023/09/11 06:23:24;;;;;;;14.68;5.35;;;17.80;99.90;;;;;;4859588;29;20070;-69
2023/09/11 06:25:50;;;;;;;10.75;4.78;;;17.90;99.90;;;;;;4859290;29;20042;-69
2023/09/11 06:29:08;;;;;;;10.15;4.95;;;18.00;99.90;;;;;;4859162;29;20050;-69
2023/09/11 06:32:15;;;;;;;10.18;4.15;;;18.00;99.90;;;;;;4858174;29;20150;-69
2023/09/11 06:35:36;;;;;;;11.88;5.32;;;18.10;99.90;;;;;;4858443;29;20033;-69
2023/09/11 06:38:05;;;;;;;8.45;5.43;;;18.10;99.90;;;;;;4859236;29;20044;-69
2023/09/11 06:40:31;;;;;;;14.75;5.20;;;18.20;99.90;;;;;;4859161;29;20036;-69
2023/09/11 06:44:13;;;;;;;10.50;5.18;;;18.30;99.90;;;;;;4859171;29;20029;-69
2023/09/11 06:46:44;;;;;;;11.13;4.10;;;18.50;99.90;;;;;;4819886;29;20054;-69
2023/09/11 06:49:10;;;;;;;11.77;5.30;;;18.60;99.90;;;;;;4820201;29;20037;-69
2023/09/11 06:51:36;;;;;;;9.82;5.13;;;18.60;99.90;;;;;;4819845;29;20066;-69
2023/09/11 06:58:05;;;;;;;12.38;5.57;;;18.80;99.90;;;;;;4765696;29;20047;-70
2023/09/11 07:00:41;;;;;;;15.18;6.15;;;18.80;99.90;;;;;;4859026;29;20475;-70
2023/09/11 07:03:06;;;;;;;15.45;5.85;;;18.80;99.90;;;;;;4859204;29;20075;-70
2023/09/11 07:05:38;;;;;;;15.95;5.18;;;18.90;99.90;;;;;;4842403;29;20053;-70
2023/09/11 07:08:29;;;;;;;11.13;5.50;;;19.00;99.90;;;;;;4842539;29;20038;-70
2023/09/11 07:10:58;;;;;;;18.30;5.55;;;19.10;99.90;;;;;;4858765;29;20490;-70
2023/09/11 07:13:32;;;;;;;16.30;6.22;;;19.20;99.90;;;;;;4858780;29;20082;-70
2023/09/11 07:16:00;;;;;;;9.93;5.88;;;19.30;99.90;;;;;;4858900;29;20049;-70
2023/09/11 07:19:29;;;;;;;18.27;6.10;;;19.50;99.90;;;;;;4842630;29;20038;-70
2023/09/11 07:21:55;;;;;;;19.67;6.32;;;19.40;99.90;;;;;;4819691;29;20031;-70
2023/09/11 07:25:11;;;;;;;15.70;6.43;;;19.60;99.90;;;;;;4819968;29;20030;-70
2023/09/11 07:27:39;;;;;;;24.20;7.32;;;19.60;99.90;;;;;;4804488;29;20132;-70
2023/09/11 07:30:14;;;;;;;11.35;6.40;;;19.80;99.90;;;;;;4819285;29;20042;-70
2023/09/11 07:33:26;;;;;;;11.15;5.65;;;19.90;99.90;;;;;;4819599;29;20061;-70
2023/09/11 07:36:30;;;;;;;20.90;6.72;;;19.90;99.90;;;;;;4819659;29;20048;-70
2023/09/11 07:40:25;;;;;;;15.15;6.50;;;20.00;99.90;;;;;;4801529;29;20083;-70
2023/09/11 07:43:49;;;;;;;19.52;6.97;;;20.00;99.90;;;;;;4713545;30;20091;-70
2023/09/11 07:46:41;;;;;;;14.07;6.40;;;20.20;99.90;;;;;;4713427;30;20199;-69
2023/09/11 07:49:19;;;;;;;19.45;7.70;;;20.30;99.90;;;;;;4690132;30;20420;-70
2023/09/11 07:51:54;;;;;;;19.25;6.82;;;20.50;99.90;;;;;;4728431;30;20112;-70
2023/09/11 07:54:25;;;;;;;19.20;6.72;;;20.60;99.90;;;;;;4786725;29;20113;-69
2023/09/11 07:57:20;;;;;;;22.30;7.32;;;20.70;99.90;;;;;;4786265;30;20071;-69
2023/09/11 07:59:52;;;;;;;17.55;6.80;;;20.80;99.90;;;;;;4767309;30;20051;-69
2023/09/11 08:02:21;;;;;;;16.05;6.72;;;20.90;99.90;;;;;;4786195;30;20130;-69
2023/09/11 08:04:53;;;;;;;25.65;6.82;;;21.00;99.90;;;;;;4786383;30;20027;-69
2023/09/11 08:08:31;;;;;;;45.67;12.90;;;21.20;99.90;;;;;;4786538;30;20059;-70
2023/09/11 08:11:30;;;;;;;11.98;6.25;;;21.20;99.90;;;;;;4750382;30;20143;-70
2023/09/11 08:14:22;;;;;;;14.88;7.85;;;21.30;99.90;;;;;;4750753;30;20040;-70
2023/09/11 08:17:03;;;;;;;15.15;7.10;;;21.50;99.90;;;;;;4740496;30;20048;-70
2023/09/11 08:19:34;;;;;;;22.83;6.15;;;21.60;99.90;;;;;;4786205;29;20047;-70
2023/09/11 08:22:00;;;;;;;13.82;6.72;;;21.70;99.90;;;;;;4786030;30;20147;-70
2023/09/11 08:24:26;;;;;;;13.43;6.18;;;21.80;99.90;;;;;;4786111;29;20039;-70
2023/09/11 08:26:55;;;;;;;12.27;6.38;;;22.00;99.90;;;;;;4786024;29;20096;-70
2023/09/11 08:29:29;;;;;;;19.63;7.60;;;21.90;99.90;;;;;;4785878;29;20129;-70
2023/09/11 08:32:01;;;;;;;16.98;6.72;;;22.00;99.90;;;;;;4785499;29;20043;-70
2023/09/11 08:34:33;;;;;;;14.90;5.90;;;22.10;99.90;;;;;;4786067;30;20047;-70
2023/09/11 08:37:00;;;;;;;18.55;6.63;;;22.20;99.90;;;;;;4785957;29;20035;-70
2023/09/11 08:39:25;;;;;;;20.67;6.68;;;22.40;99.90;;;;;;4785913;29;20043;-70
2023/09/11 08:42:04;;;;;;;18.52;7.35;;;22.30;99.90;;;;;;4770680;29;20433;-70
2023/09/11 08:44:36;;;;;;;14.18;5.55;;;22.50;99.90;;;;;;4785882;29;20046;-70
2023/09/11 08:47:51;;;;;;;9.57;5.88;;;22.60;99.90;;;;;;4817743;29;20182;-70
2023/09/11 08:50:31;;;;;;;11.38;5.43;;;22.70;99.90;;;;;;4855105;29;20046;-70
2023/09/11 08:53:03;;;;;;;10.60;5.07;;;22.90;99.90;;;;;;4859709;29;20049;-70
2023/09/11 08:55:42;;;;;;;24.80;5.20;;;23.00;99.90;;;;;;4844082;29;20378;-70
2023/09/11 09:01:32;;;;;;;12.05;5.53;;;23.30;99.90;;;;;;4858025;29;20045;-69
2023/09/11 09:04:00;;;;;;;16.55;5.68;;;23.30;99.90;;;;;;4858148;29;20041;-70
2023/09/11 09:06:54;;;;;;;19.77;5.40;;;23.30;99.90;;;;;;4858273;29;20128;-70
2023/09/11 09:09:26;;;;;;;19.75;5.70;;;23.60;99.90;;;;;;4858100;29;20539;-69
2023/09/11 09:12:02;;;;;;;11.25;4.72;;;23.60;99.90;;;;;;4857571;29;20551;-70
2023/09/11 09:14:48;;;;;;;10.45;4.50;;;23.80;99.90;;;;;;4858001;29;20735;-70
2023/09/11 09:18:24;;;;;;;12.20;5.25;;;23.90;99.90;;;;;;4857905;29;20037;-69
2023/09/11 09:20:55;;;;;;;11.13;5.40;;;24.20;99.90;;;;;;4805760;29;20091;-69
2023/09/11 09:23:36;;;;;;;14.25;4.78;;;24.30;99.90;;;;;;4822532;29;20038;-70
2023/09/11 09:26:17;;;;;;;11.50;4.50;;;24.50;99.90;;;;;;4822524;29;20038;-70
2023/09/11 09:28:56;;;;;;;11.60;5.57;;;24.60;99.90;;;;;;4822732;29;20228;-70
2023/09/11 09:32:12;;;;;;;9.02;5.13;;;24.60;99.90;;;;;;4815899;29;20512;-70
2023/09/11 09:35:00;;;;;;;18.60;5.55;;;24.50;99.90;;;;;;4785210;30;20046;-71
2023/09/11 09:37:26;;;;;;;15.10;5.55;;;24.70;99.90;;;;;;4784537;30;20505;-70
2023/09/11 09:39:54;;;;;;;12.10;5.35;;;24.70;99.90;;;;;;4784361;29;20042;-70
2023/09/11 09:42:20;;;;;;;11.95;4.38;;;24.70;99.90;;;;;;4754883;30;20420;-70
2023/09/11 09:44:59;;;;;;;9.25;4.82;;;24.80;99.90;;;;;;4770095;30;20050;-70
2023/09/11 09:47:37;;;;;;;11.45;4.45;;;25.20;99.90;;;;;;4784509;29;20046;-70
2023/09/11 09:50:02;;;;;;;9.65;5.65;;;25.40;99.90;;;;;;4769482;30;20086;-70
2023/09/11 09:52:31;;;;;;;11.90;4.75;;;25.70;99.90;;;;;;4786241;30;20078;-69
2023/09/11 09:55:08;;;;;;;8.23;4.43;;;25.90;99.90;;;;;;4795153;29;20066;-70
2023/09/11 09:57:50;;;;;;;13.15;4.90;;;25.80;99.90;;;;;;4859486;29;20578;-69
2023/09/11 10:00:25;;;;;;;12.35;4.88;;;25.80;99.90;;;;;;4859569;29;20101;-70
2023/09/11 10:03:54;;;;;;;10.68;4.25;;;26.00;99.90;;;;;;4859360;29;20116;-70
2023/09/11 10:06:31;;;;;;;18.20;4.05;;;26.20;99.90;;;;;;4859624;29;20034;-70
2023/09/11 10:09:19;;;;;;;8.38;4.80;;;26.70;99.90;;;;;;4859187;29;20592;-70
2023/09/11 10:12:16;;;;;;;8.20;4.80;;;26.80;99.90;;;;;;4859285;29;20041;-70
2023/09/11 10:14:42;;;;;;;7.28;3.55;;;26.70;99.90;;;;;;4859583;29;20030;-69
2023/09/11 10:17:08;;;;;;;11.60;3.63;;;26.70;99.90;;;;;;4859464;29;20029;-69
2023/09/11 10:19:46;;;;;;;14.35;4.18;;;26.90;99.90;;;;;;4859411;29;20029;-70
2023/09/11 10:29:56;;;;;;;11.68;3.95;;;27.30;99.90;;;;;;4742918;30;20055;-70
2023/09/11 10:33:15;;;;;;;10.30;4.13;;;27.20;99.90;;;;;;4734777;30;20040;-69
2023/09/11 10:35:44;;;;;;;8.73;3.70;;;27.60;99.90;;;;;;4713107;30;20106;-69
2023/09/11 10:38:11;;;;;;;6.83;3.73;;;27.80;99.90;;;;;;4699519;30;20033;-70
2023/09/11 10:40:44;;;;;;;9.13;3.53;;;27.80;99.90;;;;;;4698627;30;20090;-69
2023/09/11 10:43:27;;;;;;;5.00;3.13;;;27.80;99.40;;;;;;4698824;30;20621;-69
2023/09/11 10:45:54;;;;;;;7.43;3.90;;;28.00;99.10;;;;;;4698918;30;20132;-69
2023/09/11 10:49:28;;;;;;;7.07;3.40;;;28.30;96.80;;;;;;4713256;30;20073;-69
2023/09/11 10:51:53;;;;;;;12.27;5.03;;;28.70;97.70;;;;;;4677909;30;20057;-69
2023/09/11 10:54:23;;;;;;;7.13;3.38;;;29.10;97.20;;;;;;4678712;30;20050;-70
2023/09/11 10:57:28;;;;;;;10.13;3.30;;;29.10;96.80;;;;;;4706505;30;20045;-70
2023/09/11 10:59:54;;;;;;;8.82;3.63;;;28.80;97.00;;;;;;4712581;30;20044;-70
2023/09/11 11:02:51;;;;;;;7.15;3.30;;;28.90;96.70;;;;;;4746153;30;20040;-70
2023/09/11 11:05:18;;;;;;;7.28;3.05;;;29.10;94.80;;;;;;4752237;30;20052;-70
2023/09/11 11:11:31;;;;;;;5.57;3.38;;;28.50;95.30;;;;;;4747782;30;20421;-69
2023/09/11 11:14:31;;;;;;;4.55;2.90;;;28.30;95.30;;;;;;4811927;29;20051;-69
2023/09/11 11:17:40;;;;;;;9.82;3.40;;;28.90;94.50;;;;;;4819937;29;20051;-69
2023/09/11 11:20:20;;;;;;;6.10;2.85;;;29.30;93.50;;;;;;4819556;29;20066;-69
2023/09/11 11:22:46;;;;;;;9.48;2.75;;;29.50;92.50;;;;;;4807968;29;20050;-69
2023/09/11 11:25:42;;;;;;;6.68;2.95;;;30.10;89.00;;;;;;4823105;29;20045;-69
2023/09/11 11:28:45;;;;;;;5.82;2.60;;;29.80;87.80;;;;;;4803733;29;20042;-69
2023/09/11 11:32:05;;;;;;;8.60;2.47;;;30.40;88.00;;;;;;4819806;29;20046;-70
2023/09/11 11:34:35;;;;;;;6.97;2.77;;;30.80;85.80;;;;;;4794400;29;20069;-68
2023/09/11 11:40:01;;;;;;;;;;;31.10;84.90;;;;;;4805180;29;20358;-69
2023/09/11 11:45:55;;;;;;;7.80;3.13;;;30.80;85.00;;;;;;4779669;29;20040;-69
2023/09/11 11:49:08;;;;;;;8.65;3.38;;;31.20;79.00;;;;;;4861677;29;20064;-70
2023/09/11 11:51:33;;;;;;;4.95;2.72;;;31.90;77.90;;;;;;4859330;29;20060;-70
2023/09/11 11:54:58;;;;;;;6.28;2.70;;;31.90;78.70;;;;;;4861747;29;20026;-70
2023/09/11 11:57:31;;;;;;;12.40;2.97;;;31.70;76.60;;;;;;4861633;29;20041;-70
2023/09/11 12:00:27;;;;;;;5.03;2.63;;;31.70;75.70;;;;;;4844717;29;20037;-70
2023/09/11 12:03:11;;;;;;;7.65;3.22;;;31.50;75.20;;;;;;4861803;29;20025;-70
2023/09/11 12:05:58;;;;;;;8.25;2.63;;;31.70;76.30;;;;;;4861662;29;20034;-70
2023/09/11 12:08:29;;;;;;;6.93;2.03;;;32.80;71.80;;;;;;4860296;29;20030;-70
2023/09/11 12:10:55;;;;;;;7.13;2.38;;;32.40;71.60;;;;;;4859811;29;20037;-70
2023/09/11 12:13:28;;;;;;;8.25;2.72;;;32.70;67.80;;;;;;4860162;29;20045;-70
2023/09/11 12:16:30;;;;;;;8.45;2.60;;;33.10;68.30;;;;;;4860324;29;20045;-70
2023/09/11 12:19:23;;;;;;;7.90;2.33;;;33.30;65.50;;;;;;4820980;29;20069;-70
2023/09/11 12:21:49;;;;;;;5.32;2.10;;;34.00;65.50;;;;;;4861139;29;20036;-70
2023/09/11 12:24:21;;;;;;;8.65;2.75;;;35.60;60.20;;;;;;4861616;29;20033;-70
2023/09/11 12:26:47;;;;;;;6.25;1.95;;;35.20;59.90;;;;;;4861362;29;20494;-70
2023/09/11 12:30:07;;;;;;;4.88;1.50;;;35.80;59.60;;;;;;4861344;29;20048;-70
2023/09/11 12:33:37;;;;;;;7.70;1.73;;;36.80;56.20;;;;;;4803030;29;20103;-69
2023/09/11 12:36:52;;;;;;;;;;;36.60;55.90;;;;;;4804869;29;20168;-69
2023/09/11 12:39:48;;;;;;;3.65;1.48;;;37.50;55.10;;;;;;4807424;29;19913;-69
2023/09/11 12:42:38;;;;;;;7.20;1.98;;;37.90;52.90;;;;;;4862275;29;20428;-70
2023/09/11 12:48:02;;;;;;;6.70;1.77;;;37.50;51.30;;;;;;4806377;29;20042;-70
2023/09/11 12:50:34;;;;;;;7.05;2.10;;;36.60;52.80;;;;;;4788906;29;20131;-70
2023/09/11 12:53:03;;;;;;;5.68;1.95;;;34.90;53.80;;;;;;4803837;29;20065;-70
2023/09/11 12:55:34;;;;;;;7.23;1.87;;;35.50;55.10;;;;;;4788689;29;20058;-70
2023/09/11 12:58:03;;;;;;;8.05;2.35;;;36.10;53.20;;;;;;4803584;29;20067;-70
2023/09/11 13:00:35;;;;;;;5.20;2.20;;;36.10;53.60;;;;;;4802933;29;20164;-70
2023/09/11 13:03:15;;;;;;;13.27;2.78;;;37.70;52.10;;;;;;4803422;29;20801;-70
2023/09/11 13:06:02;;;;;;;5.80;1.83;;;37.00;52.40;;;;;;4803436;29;20046;-70
2023/09/11 13:08:44;;;;;;;6.18;2.40;;;38.10;51.80;;;;;;4803273;29;20388;-70
2023/09/11 13:11:25;;;;;;;11.48;2.17;;;36.40;52.80;;;;;;4802973;29;20673;-70
2023/09/11 13:14:18;;;;;;;9.57;2.38;;;35.20;55.00;;;;;;4788047;29;20066;-70
2023/09/11 13:16:47;;;;;;;9.35;2.35;;;35.70;53.70;;;;;;4802980;29;20050;-70
2023/09/11 13:19:13;;;;;;;4.60;2.17;;;34.90;53.60;;;;;;4788216;29;20058;-70
2023/09/11 13:21:51;;;;;;;8.00;2.42;;;35.20;54.00;;;;;;4821035;29;20033;-70
2023/09/11 13:24:20;;;;;;;3.13;1.60;;;35.20;52.80;;;;;;4860359;29;20037;-70
2023/09/11 13:27:02;;;;;;;3.60;1.67;;;36.80;53.20;;;;;;4860262;29;20033;-70
2023/09/11 13:29:54;;;;;;;13.50;2.50;;;35.50;53.70;;;;;;4843515;29;20030;-70
2023/09/11 13:32:20;;;;;;;6.97;1.90;;;35.90;54.10;;;;;;4838308;29;20788;-70
2023/09/11 13:34:46;;;;;;;7.80;2.30;;;36.40;52.30;;;;;;4860101;29;20085;-69
2023/09/11 13:37:18;;;;;;;7.50;2.80;;;36.40;51.00;;;;;;4858547;29;20112;-70
2023/09/11 13:39:44;;;;;;;9.48;2.75;;;35.70;51.30;;;;;;4858651;29;20022;-73
2023/09/11 13:42:09;;;;;;;9.75;2.13;;;35.00;52.80;;;;;;4859535;29;20081;-69
2023/09/11 13:44:44;;;;;;;8.73;2.20;;;35.00;53.20;;;;;;4859481;29;20034;-69
2023/09/11 13:47:16;;;;;;;8.60;2.30;;;35.20;53.50;;;;;;4859727;29;20033;-70
2023/09/11 13:49:42;;;;;;;6.93;2.03;;;37.00;51.80;;;;;;4859706;29;20128;-70
2023/09/11 13:52:07;;;;;;;3.60;1.63;;;35.90;51.70;;;;;;4859467;29;20112;-69
2023/09/11 13:54:33;;;;;;;4.43;2.08;;;36.20;51.90;;;;;;4859650;29;20090;-70
2023/09/11 13:57:56;;;;;;;2.88;1.85;;;36.00;52.00;;;;;;4859678;29;20501;-70
2023/09/11 14:01:14;;;;;;;7.13;1.50;;;36.00;51.40;;;;;;4802160;29;20159;-70
2023/09/11 14:04:25;;;;;;;6.80;1.98;;;36.80;50.50;;;;;;4802462;29;20038;-70
2023/09/11 14:06:53;;;;;;;6.15;1.75;;;38.10;49.30;;;;;;4788804;29;20055;-69
2023/09/11 14:09:22;;;;;;;4.72;1.77;;;35.00;51.50;;;;;;4802193;29;20043;-69
2023/09/11 14:11:50;;;;;;;7.77;2.10;;;37.10;51.00;;;;;;4802147;29;20074;-70
2023/09/11 14:14:44;;;;;;;4.53;1.95;;;36.00;51.10;;;;;;4822140;29;20045;-69
2023/09/11 14:17:10;;;;;;;8.68;1.88;;;35.00;53.60;;;;;;4857524;29;20101;-69
2023/09/11 14:19:38;;;;;;;8.98;2.55;;;35.50;51.80;;;;;;4859473;29;20037;-70